Terminal Aerodrome Forecast
Issued by NWS

Home | Current Version | Previous Version | Text Only | Print | Product List | Glossary On
Versions: 1 2 3 4 5 6 7 8 9 10 11 12 13 14 15 16 17 18 19 20 21 22 23 24 25 26 27 28 29 30 31 32 33 34 35 36 37 38 39 40 41 42 43 44 45 46 47 48 49 50
000
FTUS45 KBOU 281047 AAB
TAFBJC
TAF AMD
KBJC 281047Z 2811/2906 35006KT P6SM SCT004 BKN120
      TEMPO 2811/2813 BKN004
     FM281300 VRB06KT P6SM FEW070 SCT150
     FM282100 09008KT P6SM SCT050 BKN090
      TEMPO 2821/2824 VRB15G30KT -TSRA BKN070CB
     FM290300 06008KT P6SM SCT070 BKN120=

USA.gov is the U.S. government's official web portal to all federal, state and local government web resources and services.